Time;durP1;ratioP1;P1;durP2;ratioP2;P2;SDS_P1;SDS_P2;PMS_P1;PMS_P2;Temp;Humidity;BMP_temperature;BMP_pressure;BME280_temperature;BME280_humidity;BME280_pressure;Samples;Min_cycle;Max_cycle;Signal;HPM_P1;HPM_P2
2022/03/28 00:00:52;;;;;;;102.97;40.35;;;;;;;;;;5071412;28;20465;-64
2022/03/28 00:03:18;;;;;;;104.88;40.00;;;;;;;;;;5071398;28;20415;-64
2022/03/28 00:05:44;;;;;;;111.82;41.88;;;;;;;;;;5071555;28;20032;-64
2022/03/28 00:08:10;;;;;;;126.85;42.67;;;;;;;;;;5071297;28;20025;-64
2022/03/28 00:10:36;;;;;;;100.07;39.58;;;;;;;;;;5071633;28;20055;-64
2022/03/28 00:13:03;;;;;;;100.53;38.05;;;;;;;;;;5070804;28;20025;-64
2022/03/28 00:15:29;;;;;;;98.90;38.53;;;;;;;;;;5071457;28;20032;-64
2022/03/28 00:17:55;;;;;;;109.93;40.25;;;;;;;;;;5071214;28;20029;-64
2022/03/28 00:20:23;;;;;;;104.78;39.47;;;;;;;;;;5071202;28;20086;-64
2022/03/28 00:22:49;;;;;;;106.40;40.92;;;;;;;;;;5071359;28;20480;-64
2022/03/28 00:25:15;;;;;;;106.50;40.60;;;;;;;;;;5071237;28;20385;-64
2022/03/28 00:27:41;;;;;;;101.72;39.55;;;;;;;;;;5070875;28;20400;-64
2022/03/28 00:30:09;;;;;;;108.68;40.67;;;;;;;;;;5069598;28;20071;-64
2022/03/28 00:32:35;;;;;;;91.60;37.38;;;;;;;;;;5071529;28;20025;-64
2022/03/28 00:35:01;;;;;;;99.53;40.47;;;;;;;;;;5071257;28;20056;-64
2022/03/28 00:37:27;;;;;;;104.32;39.92;;;;;;;;;;5074910;28;20033;-64
2022/03/28 00:39:53;;;;;;;107.65;39.90;;;;;;;;;;5075001;28;20090;-64
2022/03/28 00:42:19;;;;;;;116.03;39.08;;;;;;;;;;5073816;28;20582;-64
2022/03/28 00:44:46;;;;;;;109.97;42.05;;;;;;;;;;5075058;28;20434;-64
2022/03/28 00:47:12;;;;;;;118.10;43.50;;;;;;;;;;5074618;28;20024;-64
2022/03/28 00:49:38;;;;;;;108.78;41.45;;;;;;;;;;5074818;28;20029;-64
2022/03/28 00:52:04;;;;;;;120.05;42.90;;;;;;;;;;5074408;28;20106;-64
2022/03/28 00:54:30;;;;;;;118.85;42.88;;;;;;;;;;5074415;28;20119;-64
2022/03/28 00:56:57;;;;;;;112.65;42.20;;;;;;;;;;5074254;28;20065;-64
2022/03/28 00:59:23;;;;;;;111.47;42.22;;;;;;;;;;5074407;28;20024;-64
2022/03/28 01:01:49;;;;;;;107.50;42.08;;;;;;;;;;5074596;28;20131;-64
2022/03/28 01:04:15;;;;;;;116.20;42.83;;;;;;;;;;5074390;28;20412;-64
2022/03/28 01:06:42;;;;;;;125.72;45.28;;;;;;;;;;5074596;28;20024;-64
2022/03/28 01:09:08;;;;;;;134.65;44.00;;;;;;;;;;5073928;28;20099;-64
2022/03/28 01:11:34;;;;;;;136.65;46.15;;;;;;;;;;5074182;28;20028;-64
2022/03/28 01:14:01;;;;;;;138.50;44.92;;;;;;;;;;5074092;28;20055;-64
2022/03/28 01:16:31;;;;;;;156.77;47.00;;;;;;;;;;5073676;28;20028;-64
2022/03/28 01:18:57;;;;;;;147.30;43.85;;;;;;;;;;5074430;28;20082;-64
2022/03/28 01:21:23;;;;;;;192.52;43.42;;;;;;;;;;5073628;28;20043;-64
2022/03/28 01:23:49;;;;;;;150.55;42.55;;;;;;;;;;5074061;28;20036;-64
2022/03/28 01:26:18;;;;;;;178.85;43.65;;;;;;;;;;5073726;28;20020;-64
2022/03/28 01:28:44;;;;;;;123.68;41.13;;;;;;;;;;5074471;28;20079;-64
2022/03/28 01:31:11;;;;;;;125.93;44.65;;;;;;;;;;5073987;28;20551;-64
2022/03/28 01:33:37;;;;;;;131.18;41.30;;;;;;;;;;5074109;28;20032;-64
2022/03/28 01:36:03;;;;;;;139.75;40.40;;;;;;;;;;5073026;28;20032;-64
2022/03/28 01:38:29;;;;;;;101.22;39.33;;;;;;;;;;5073773;28;20021;-64
2022/03/28 01:40:55;;;;;;;117.72;42.38;;;;;;;;;;5073465;28;20025;-64
2022/03/28 01:43:22;;;;;;;113.65;40.38;;;;;;;;;;5073431;28;20020;-64
2022/03/28 01:45:48;;;;;;;116.68;41.03;;;;;;;;;;5073903;28;20440;-64
2022/03/28 01:48:14;;;;;;;128.00;43.40;;;;;;;;;;5072851;28;20427;-64
2022/03/28 01:50:41;;;;;;;140.63;44.97;;;;;;;;;;5073369;28;20091;-64
2022/03/28 01:53:07;;;;;;;156.95;43.70;;;;;;;;;;5073715;28;20590;-64
2022/03/28 01:55:33;;;;;;;172.40;44.40;;;;;;;;;;5073129;28;20069;-64
2022/03/28 01:58:00;;;;;;;242.23;47.42;;;;;;;;;;5073697;28;20506;-64
2022/03/28 02:00:32;;;;;;;273.38;52.00;;;;;;;;;;5072951;28;20031;-64
2022/03/28 02:02:58;;;;;;;273.60;51.77;;;;;;;;;;5073473;28;20025;-64
2022/03/28 02:05:24;;;;;;;217.63;48.08;;;;;;;;;;5072985;28;20267;-64
2022/03/28 02:07:50;;;;;;;134.40;43.08;;;;;;;;;;5073507;28;20020;-64
2022/03/28 02:10:17;;;;;;;190.02;43.65;;;;;;;;;;5072809;28;20111;-64
2022/03/28 02:12:44;;;;;;;183.90;44.63;;;;;;;;;;5073108;28;20024;-64
2022/03/28 02:15:11;;;;;;;314.15;56.47;;;;;;;;;;5072822;28;20075;-64
2022/03/28 02:17:37;;;;;;;284.50;48.40;;;;;;;;;;5072940;28;20039;-64
2022/03/28 02:20:08;;;;;;;153.30;44.17;;;;;;;;;;5072878;28;20075;-64
2022/03/28 02:22:38;;;;;;;235.23;46.38;;;;;;;;;;5072717;28;20036;-64
2022/03/28 02:25:05;;;;;;;229.07;45.70;;;;;;;;;;5072624;28;20016;-64
2022/03/28 02:27:31;;;;;;;202.38;43.85;;;;;;;;;;5072783;28;20055;-64
2022/03/28 02:29:57;;;;;;;223.60;46.40;;;;;;;;;;5073036;28;20576;-64
2022/03/28 02:32:23;;;;;;;181.70;43.90;;;;;;;;;;5072240;28;20024;-64
2022/03/28 02:34:49;;;;;;;188.13;42.65;;;;;;;;;;5072936;28;20051;-64
2022/03/28 02:37:15;;;;;;;134.73;42.85;;;;;;;;;;5072703;28;20541;-64
2022/03/28 02:39:42;;;;;;;173.05;42.90;;;;;;;;;;5072388;28;20078;-64
2022/03/28 02:42:09;;;;;;;227.23;47.33;;;;;;;;;;5071736;28;20028;-64
2022/03/28 02:44:35;;;;;;;149.95;42.80;;;;;;;;;;5072293;28;20036;-64
2022/03/28 02:47:01;;;;;;;164.13;42.85;;;;;;;;;;5072511;28;20023;-64
2022/03/28 02:49:27;;;;;;;274.95;49.08;;;;;;;;;;5072409;28;20035;-64
2022/03/28 02:51:53;;;;;;;160.98;43.10;;;;;;;;;;5072532;28;20146;-64
2022/03/28 02:54:20;;;;;;;223.15;44.60;;;;;;;;;;5071774;28;20515;-64
2022/03/28 02:56:46;;;;;;;158.25;42.65;;;;;;;;;;5072578;28;20019;-64
2022/03/28 02:59:12;;;;;;;203.68;45.05;;;;;;;;;;5072400;28;20024;-64
2022/03/28 03:01:38;;;;;;;214.43;43.55;;;;;;;;;;5071915;28;20395;-64
2022/03/28 03:04:04;;;;;;;135.75;42.65;;;;;;;;;;5072160;28;20040;-64
2022/03/28 03:06:30;;;;;;;173.70;43.42;;;;;;;;;;5071811;28;20028;-64
2022/03/28 03:08:57;;;;;;;176.43;45.85;;;;;;;;;;5071881;28;20027;-64
2022/03/28 03:11:23;;;;;;;127.68;41.47;;;;;;;;;;5072163;28;20074;-64
2022/03/28 03:13:49;;;;;;;171.27;42.25;;;;;;;;;;5072032;28;20056;-64
2022/03/28 03:16:16;;;;;;;152.52;42.15;;;;;;;;;;5071880;28;20467;-64
2022/03/28 03:18:42;;;;;;;146.98;40.35;;;;;;;;;;5071581;28;20032;-64
2022/03/28 03:21:08;;;;;;;132.55;40.13;;;;;;;;;;5071804;28;20096;-64
2022/03/28 03:23:35;;;;;;;158.95;43.80;;;;;;;;;;5071542;28;20024;-64
2022/03/28 03:26:01;;;;;;;127.53;40.00;;;;;;;;;;5072209;28;20090;-64
2022/03/28 03:28:27;;;;;;;127.88;40.95;;;;;;;;;;5071589;28;20111;-64
2022/03/28 03:30:53;;;;;;;150.00;40.45;;;;;;;;;;5072045;28;20027;-64
2022/03/28 03:33:19;;;;;;;114.38;39.40;;;;;;;;;;5071715;28;20272;-64
2022/03/28 03:35:45;;;;;;;143.82;40.40;;;;;;;;;;5071123;28;20028;-64
2022/03/28 03:38:11;;;;;;;104.57;38.72;;;;;;;;;;5071937;28;20048;-64
2022/03/28 03:40:38;;;;;;;153.73;42.03;;;;;;;;;;5071306;28;20115;-64
2022/03/28 03:43:04;;;;;;;136.23;41.22;;;;;;;;;;5071792;28;20059;-64
2022/03/28 03:45:30;;;;;;;124.78;40.17;;;;;;;;;;5071795;28;20032;-64
2022/03/28 03:47:56;;;;;;;183.70;42.38;;;;;;;;;;5071416;28;20115;-64
2022/03/28 03:50:22;;;;;;;119.20;36.25;;;;;;;;;;5071780;28;20392;-64
2022/03/28 03:52:50;;;;;;;106.35;37.38;;;;;;;;;;5071423;28;20036;-64
2022/03/28 03:55:16;;;;;;;153.38;40.05;;;;;;;;;;5071692;28;20060;-64
2022/03/28 03:57:42;;;;;;;104.18;38.50;;;;;;;;;;5071543;28;20024;-64
2022/03/28 04:00:09;;;;;;;118.50;38.97;;;;;;;;;;5071334;28;20025;-64
2022/03/28 04:02:41;;;;;;;137.77;38.67;;;;;;;;;;5071709;28;20060;-64
2022/03/28 04:05:07;;;;;;;168.25;38.75;;;;;;;;;;5071317;28;20021;-64
2022/03/28 04:07:33;;;;;;;99.88;36.88;;;;;;;;;;5071457;28;20032;-64
2022/03/28 04:10:01;;;;;;;91.10;36.13;;;;;;;;;;5071435;28;20079;-64
2022/03/28 04:12:27;;;;;;;115.93;37.42;;;;;;;;;;5075400;28;20427;-64
2022/03/28 04:14:57;;;;;;;94.00;35.00;;;;;;;;;;5074767;28;20488;-65
2022/03/28 04:17:24;;;;;;;120.57;36.78;;;;;;;;;;5075436;28;20035;-64
2022/03/28 04:19:50;;;;;;;100.78;36.10;;;;;;;;;;5074872;28;20028;-64
2022/03/28 04:22:16;;;;;;;126.68;37.00;;;;;;;;;;5075346;28;20039;-64
2022/03/28 04:24:42;;;;;;;126.72;37.97;;;;;;;;;;5074841;28;20036;-64
2022/03/28 04:27:08;;;;;;;94.82;36.13;;;;;;;;;;5075056;28;20023;-64
2022/03/28 04:29:34;;;;;;;153.23;39.63;;;;;;;;;;5075105;28;20036;-64
2022/03/28 04:32:00;;;;;;;92.38;36.38;;;;;;;;;;5075122;28;20025;-64
2022/03/28 04:34:26;;;;;;;103.15;38.90;;;;;;;;;;5074737;28;20021;-65
2022/03/28 04:36:53;;;;;;;108.07;37.15;;;;;;;;;;5074991;28;20033;-65
2022/03/28 04:39:19;;;;;;;107.95;38.00;;;;;;;;;;5074879;28;20070;-64
2022/03/28 04:41:45;;;;;;;105.22;39.03;;;;;;;;;;5074299;28;20037;-64
2022/03/28 04:44:11;;;;;;;100.15;37.75;;;;;;;;;;5074937;28;20515;-64
2022/03/28 04:46:37;;;;;;;128.45;40.38;;;;;;;;;;5074542;28;20112;-64
2022/03/28 04:49:03;;;;;;;115.28;38.20;;;;;;;;;;5074412;28;20473;-64
2022/03/28 04:51:29;;;;;;;120.32;39.22;;;;;;;;;;5074649;28;20032;-64
2022/03/28 04:53:55;;;;;;;95.10;37.80;;;;;;;;;;5074684;28;20052;-65
2022/03/28 04:56:21;;;;;;;122.82;39.50;;;;;;;;;;5074952;28;20043;-64
2022/03/28 04:58:47;;;;;;;115.70;38.53;;;;;;;;;;5074130;28;20039;-65
2022/03/28 05:01:14;;;;;;;100.55;37.55;;;;;;;;;;5074601;28;20017;-65
2022/03/28 05:03:40;;;;;;;91.50;37.15;;;;;;;;;;5074123;28;20064;-64
2022/03/28 05:06:08;;;;;;;116.55;38.08;;;;;;;;;;5074620;28;20024;-65
2022/03/28 05:08:35;;;;;;;113.00;38.53;;;;;;;;;;5074281;28;20128;-65
2022/03/28 05:11:02;;;;;;;105.63;37.50;;;;;;;;;;5074368;28;20098;-65
2022/03/28 05:13:28;;;;;;;120.22;39.22;;;;;;;;;;5074520;28;20044;-64
2022/03/28 05:15:54;;;;;;;96.47;37.92;;;;;;;;;;5072349;28;20056;-64
2022/03/28 05:18:20;;;;;;;93.88;36.40;;;;;;;;;;5072098;28;20384;-64
2022/03/28 05:20:46;;;;;;;110.72;39.47;;;;;;;;;;5070056;28;20040;-65
2022/03/28 05:23:12;;;;;;;105.28;38.83;;;;;;;;;;5061369;28;20025;-64
2022/03/28 05:25:38;;;;;;;110.25;35.85;;;;;;;;;;5073341;28;20498;-64
2022/03/28 05:28:05;;;;;;;93.75;36.97;;;;;;;;;;5072415;28;20504;-64
2022/03/28 05:30:32;;;;;;;108.95;39.17;;;;;;;;;;5067911;28;20029;-64
2022/03/28 05:32:58;;;;;;;103.93;37.92;;;;;;;;;;5071106;28;20055;-64
2022/03/28 05:35:24;;;;;;;95.90;37.10;;;;;;;;;;5072922;28;20032;-64
2022/03/28 05:37:50;;;;;;;113.35;40.63;;;;;;;;;;5072582;28;20028;-64
2022/03/28 05:40:16;;;;;;;107.22;38.47;;;;;;;;;;5073397;28;20036;-64
2022/03/28 05:42:42;;;;;;;96.53;37.65;;;;;;;;;;5073278;28;20038;-64
2022/03/28 05:45:10;;;;;;;101.50;38.08;;;;;;;;;;5062754;28;20024;-64
2022/03/28 05:47:36;;;;;;;106.10;37.35;;;;;;;;;;5073190;28;20086;-64
2022/03/28 05:50:02;;;;;;;118.22;38.80;;;;;;;;;;5068066;28;20081;-64
2022/03/28 05:52:28;;;;;;;118.60;39.40;;;;;;;;;;5073616;28;20035;-64
2022/03/28 05:54:54;;;;;;;94.15;38.60;;;;;;;;;;5073288;28;20032;-64
2022/03/28 05:57:20;;;;;;;114.07;40.10;;;;;;;;;;5066945;28;20047;-64
2022/03/28 05:59:47;;;;;;;104.25;39.63;;;;;;;;;;5073251;28;20097;-65
2022/03/28 06:02:13;;;;;;;94.07;36.35;;;;;;;;;;5071433;28;20021;-64
2022/03/28 06:04:39;;;;;;;122.63;39.40;;;;;;;;;;5071718;28;20036;-66
2022/03/28 06:07:05;;;;;;;106.10;38.50;;;;;;;;;;5071627;28;20165;-64
2022/03/28 06:09:31;;;;;;;123.80;37.83;;;;;;;;;;5069207;28;20090;-64
2022/03/28 06:11:57;;;;;;;102.18;37.63;;;;;;;;;;5072156;28;20111;-64
2022/03/28 06:14:24;;;;;;;98.30;39.55;;;;;;;;;;5071621;28;20121;-64
2022/03/28 06:16:51;;;;;;;100.90;38.92;;;;;;;;;;5072075;28;20028;-64
2022/03/28 06:19:17;;;;;;;110.22;37.58;;;;;;;;;;5064718;28;20029;-64
2022/03/28 06:21:43;;;;;;;91.70;36.97;;;;;;;;;;5072567;28;20029;-64
2022/03/28 06:24:09;;;;;;;94.82;39.83;;;;;;;;;;5066276;28;20048;-64
2022/03/28 06:26:35;;;;;;;89.47;36.42;;;;;;;;;;5061466;28;20103;-65
2022/03/28 06:29:01;;;;;;;99.22;38.65;;;;;;;;;;5064501;28;20112;-64
2022/03/28 06:31:27;;;;;;;95.18;36.75;;;;;;;;;;5068426;28;20040;-65
2022/03/28 06:34:01;;;;;;;83.25;37.63;;;;;;;;;;5067961;28;20481;-65
2022/03/28 06:36:28;;;;;;;95.45;36.92;;;;;;;;;;5071378;28;20047;-65
2022/03/28 06:38:54;;;;;;;89.30;36.25;;;;;;;;;;5068166;28;20028;-65
2022/03/28 06:41:20;;;;;;;93.55;36.72;;;;;;;;;;5070279;28;20028;-65
2022/03/28 06:43:46;;;;;;;92.18;35.28;;;;;;;;;;5070254;28;20442;-65
2022/03/28 06:46:13;;;;;;;91.97;36.28;;;;;;;;;;5070215;28;20427;-65
2022/03/28 06:48:40;;;;;;;77.22;36.88;;;;;;;;;;5071071;28;20032;-65
2022/03/28 06:51:07;;;;;;;79.57;33.70;;;;;;;;;;5061134;28;20489;-65
2022/03/28 06:53:33;;;;;;;76.85;33.13;;;;;;;;;;5068156;28;20037;-65
2022/03/28 06:55:59;;;;;;;80.90;34.53;;;;;;;;;;5067839;28;20047;-65
2022/03/28 06:58:25;;;;;;;73.05;34.65;;;;;;;;;;5069199;28;20032;-65
2022/03/28 07:00:52;;;;;;;71.25;33.72;;;;;;;;;;5072048;28;20082;-65
2022/03/28 07:03:18;;;;;;;80.70;36.13;;;;;;;;;;5071179;28;20059;-65
2022/03/28 07:05:44;;;;;;;73.57;33.95;;;;;;;;;;5066974;28;20028;-65
2022/03/28 07:08:12;;;;;;;74.80;33.22;;;;;;;;;;5069855;28;20491;-65
2022/03/28 07:10:38;;;;;;;82.38;34.67;;;;;;;;;;5064566;28;20043;-69
2022/03/28 07:13:04;;;;;;;75.20;33.45;;;;;;;;;;5068740;28;20388;-64
2022/03/28 07:15:30;;;;;;;73.85;33.03;;;;;;;;;;5067936;28;20488;-64
2022/03/28 07:18:02;;;;;;;86.10;34.63;;;;;;;;;;5067487;28;20106;-65
2022/03/28 07:20:29;;;;;;;77.72;34.28;;;;;;;;;;5068520;28;20032;-65
2022/03/28 07:22:56;;;;;;;81.25;35.33;;;;;;;;;;5066739;28;20024;-65
2022/03/28 07:25:23;;;;;;;74.65;33.22;;;;;;;;;;5067600;28;20120;-65
2022/03/28 07:27:50;;;;;;;69.72;32.20;;;;;;;;;;5065809;28;20023;-65
2022/03/28 07:30:17;;;;;;;70.47;33.17;;;;;;;;;;5071065;28;20032;-65
2022/03/28 07:32:43;;;;;;;77.05;34.33;;;;;;;;;;5066929;28;20497;-65
2022/03/28 07:35:10;;;;;;;73.00;34.60;;;;;;;;;;5069819;28;20035;-65
2022/03/28 07:37:37;;;;;;;68.43;33.08;;;;;;;;;;5066068;28;20123;-65
2022/03/28 07:40:05;;;;;;;74.82;33.20;;;;;;;;;;5064813;28;20425;-65
2022/03/28 07:42:33;;;;;;;71.85;30.40;;;;;;;;;;5065185;28;20037;-65
2022/03/28 07:44:59;;;;;;;61.13;31.17;;;;;;;;;;5071523;28;20031;-65
2022/03/28 07:47:26;;;;;;;60.00;28.92;;;;;;;;;;5065804;28;20032;-65
2022/03/28 07:49:53;;;;;;;63.25;29.70;;;;;;;;;;5065445;28;20055;-65
2022/03/28 07:52:19;;;;;;;64.55;31.48;;;;;;;;;;5063043;28;20396;-65
2022/03/28 07:54:47;;;;;;;61.67;29.08;;;;;;;;;;5066702;28;20103;-65
2022/03/28 07:57:14;;;;;;;61.08;29.70;;;;;;;;;;5063406;28;20024;-65
2022/03/28 07:59:44;;;;;;;60.63;28.52;;;;;;;;;;5066188;28;20488;-65
2022/03/28 08:02:10;;;;;;;65.60;29.27;;;;;;;;;;5068685;28;20396;-65
2022/03/28 08:04:37;;;;;;;62.53;30.98;;;;;;;;;;5065082;28;20028;-65
2022/03/28 08:07:07;;;;;;;60.00;31.58;;;;;;;;;;5067036;28;20116;-69
2022/03/28 08:09:33;;;;;;;60.25;31.48;;;;;;;;;;5063930;28;20522;-65
2022/03/28 08:11:59;;;;;;;58.38;29.98;;;;;;;;;;5066087;28;20052;-65
2022/03/28 08:14:26;;;;;;;63.83;31.80;;;;;;;;;;5068199;28;20055;-65
2022/03/28 08:16:53;;;;;;;63.60;31.95;;;;;;;;;;5062643;28;20028;-65
2022/03/28 08:19:19;;;;;;;63.40;31.88;;;;;;;;;;5064177;28;20029;-65
2022/03/28 08:21:45;;;;;;;64.32;32.75;;;;;;;;;;5063071;28;20032;-65
2022/03/28 08:24:11;;;;;;;63.25;31.45;;;;;;;;;;5064275;28;20024;-65
2022/03/28 08:26:37;;;;;;;57.45;30.73;;;;;;;;;;5066747;28;20105;-65
2022/03/28 08:29:04;;;;;;;60.95;30.63;;;;;;;;;;5065524;28;20094;-65
2022/03/28 08:31:30;;;;;;;55.95;30.33;;;;;;;;;;5068193;28;20039;-65
2022/03/28 08:33:56;;;;;;;54.20;28.85;;;;;;;;;;5064960;28;20025;-65
2022/03/28 08:36:22;;;;;;;57.35;28.23;;;;;;;;;;5066686;28;20444;-70
2022/03/28 08:38:48;;;;;;;58.08;29.10;;;;;;;;;;5066511;28;20033;-65
2022/03/28 08:41:17;;;;;;;59.88;28.75;;;;;;;;;;5066955;28;20477;-65
2022/03/28 08:43:43;;;;;;;58.50;29.30;;;;;;;;;;5067130;28;20021;-65
2022/03/28 08:46:10;;;;;;;52.13;27.02;;;;;;;;;;5067346;28;20025;-65
2022/03/28 08:48:40;;;;;;;53.38;28.05;;;;;;;;;;5064848;28;20043;-65
2022/03/28 08:51:10;;;;;;;59.22;29.33;;;;;;;;;;5057264;28;20029;-65
2022/03/28 08:53:37;;;;;;;53.35;27.25;;;;;;;;;;5067277;28;20028;-65
2022/03/28 08:56:04;;;;;;;52.35;27.73;;;;;;;;;;5067992;28;20033;-65
2022/03/28 08:58:30;;;;;;;57.33;27.77;;;;;;;;;;5074906;28;20511;-65
2022/03/28 09:00:56;;;;;;;53.45;27.05;;;;;;;;;;5075519;28;20017;-65
2022/03/28 09:03:36;;;;;;;51.90;27.50;;;;;;;;;;5071146;28;20029;-65
2022/03/28 09:06:05;;;;;;;49.47;26.85;;;;;;;;;;5074237;28;20442;-65
2022/03/28 09:08:37;;;;;;;52.83;26.80;;;;;;;;;;5070930;28;20493;-65
2022/03/28 09:11:19;;;;;;;48.50;27.17;;;;;;;;;;5070153;28;20377;-65
2022/03/28 09:13:45;;;;;;;50.60;26.08;;;;;;;;;;5069690;28;20958;-65
2022/03/28 09:16:17;;;;;;;52.72;27.65;;;;;;;;;;5069400;28;20035;-65
2022/03/28 09:18:44;;;;;;;45.20;25.73;;;;;;;;;;5072285;28;20126;-65
2022/03/28 09:21:17;;;;;;;52.83;27.00;;;;;;;;;;5066745;28;20025;-65
2022/03/28 09:23:48;;;;;;;48.75;26.65;;;;;;;;;;5067366;28;20074;-65
2022/03/28 09:26:20;;;;;;;46.25;26.25;;;;;;;;;;5061901;28;20021;-65
2022/03/28 09:28:46;;;;;;;47.33;27.70;;;;;;;;;;5071366;28;20017;-64
2022/03/28 09:31:20;;;;;;;52.30;26.85;;;;;;;;;;5068402;28;20041;-64
2022/03/28 09:34:06;;;;;;;50.00;27.15;;;;;;;;;;5075062;28;20476;-64
2022/03/28 09:36:41;;;;;;;49.95;25.83;;;;;;;;;;5069672;28;20048;-65
2022/03/28 09:39:09;;;;;;;49.42;25.83;;;;;;;;;;5068260;28;20036;-64
2022/03/28 09:41:35;;;;;;;47.22;26.10;;;;;;;;;;5068140;28;20035;-65
2022/03/28 09:44:01;;;;;;;46.13;25.88;;;;;;;;;;5066973;28;20484;-65
2022/03/28 09:46:28;;;;;;;47.20;25.33;;;;;;;;;;5066355;28;20029;-65
2022/03/28 09:48:57;;;;;;;45.92;25.25;;;;;;;;;;5069400;28;20031;-65
2022/03/28 09:51:25;;;;;;;49.00;24.42;;;;;;;;;;5067041;28;20093;-65
2022/03/28 09:53:51;;;;;;;43.08;24.38;;;;;;;;;;5066843;28;20492;-65
2022/03/28 09:56:18;;;;;;;44.72;23.83;;;;;;;;;;5067911;28;20025;-65
2022/03/28 09:58:56;;;;;;;43.33;23.67;;;;;;;;;;5070171;28;20451;-65
2022/03/28 10:01:25;;;;;;;40.55;23.50;;;;;;;;;;5068264;28;20047;-65
2022/03/28 10:03:53;;;;;;;42.80;23.23;;;;;;;;;;5068624;28;20020;-65
2022/03/28 10:06:20;;;;;;;46.47;24.42;;;;;;;;;;5070730;28;20443;-65
2022/03/28 10:08:47;;;;;;;42.40;23.08;;;;;;;;;;5066962;28;20032;-65
2022/03/28 10:11:14;;;;;;;44.13;23.38;;;;;;;;;;5067990;28;20028;-65
2022/03/28 10:13:40;;;;;;;46.95;25.52;;;;;;;;;;5073339;28;20415;-65
2022/03/28 10:16:07;;;;;;;41.35;23.80;;;;;;;;;;5068091;28;20492;-65
2022/03/28 10:18:37;;;;;;;43.58;24.80;;;;;;;;;;5066199;28;20036;-65
2022/03/28 10:21:09;;;;;;;39.42;23.42;;;;;;;;;;5065639;28;20064;-65
2022/03/28 10:23:38;;;;;;;43.13;24.60;;;;;;;;;;5071872;28;20017;-65
2022/03/28 10:26:09;;;;;;;42.63;24.52;;;;;;;;;;5066694;28;20071;-65
2022/03/28 10:28:37;;;;;;;45.72;23.38;;;;;;;;;;5069111;28;20049;-65
2022/03/28 10:31:12;;;;;;;37.78;22.40;;;;;;;;;;5066437;28;20031;-65
2022/03/28 10:33:46;;;;;;;45.70;22.80;;;;;;;;;;5069279;28;20141;-65
2022/03/28 10:36:24;;;;;;;39.33;21.35;;;;;;;;;;5068267;28;20462;-65
2022/03/28 10:38:51;;;;;;;39.45;22.27;;;;;;;;;;5071713;28;20039;-65
2022/03/28 10:41:18;;;;;;;41.50;23.75;;;;;;;;;;5069198;28;20110;-65
2022/03/28 10:43:45;;;;;;;41.00;23.50;;;;;;;;;;5070795;28;20476;-65
2022/03/28 10:46:11;;;;;;;39.67;23.13;;;;;;;;;;5073677;28;20481;-65
2022/03/28 10:48:39;;;;;;;42.17;23.60;;;;;;;;;;5072559;28;20428;-65
2022/03/28 10:51:07;;;;;;;43.25;23.33;;;;;;;;;;5068245;28;20516;-65
2022/03/28 10:53:57;;;;;;;45.40;24.52;;;;;;;;;;5069878;28;20118;-65
2022/03/28 10:56:37;;;;;;;40.15;22.67;;;;;;;;;;5064048;28;20049;-65
2022/03/28 10:59:11;;;;;;;44.78;23.50;;;;;;;;;;5066904;28;20365;-65
2022/03/28 11:01:46;;;;;;;45.83;23.52;;;;;;;;;;5065989;28;20162;-65
2022/03/28 11:04:15;;;;;;;37.17;22.23;;;;;;;;;;5068225;28;20032;-65
2022/03/28 11:06:46;;;;;;;45.28;22.70;;;;;;;;;;5068603;28;20806;-64
2022/03/28 11:09:12;;;;;;;38.28;23.20;;;;;;;;;;5070325;28;20020;-64
2022/03/28 11:11:58;;;;;;;47.72;23.25;;;;;;;;;;5065756;28;20040;-64
2022/03/28 11:14:42;;;;;;;44.55;23.52;;;;;;;;;;5072248;28;20036;-65
2022/03/28 11:17:15;;;;;;;49.47;22.63;;;;;;;;;;5067265;28;20505;-64
2022/03/28 11:19:51;;;;;;;44.63;22.52;;;;;;;;;;5063418;28;20029;-64
2022/03/28 11:22:17;;;;;;;43.25;23.27;;;;;;;;;;5065051;28;20123;-64
2022/03/28 11:24:43;;;;;;;46.10;22.20;;;;;;;;;;5060402;28;20036;-64
2022/03/28 11:27:10;;;;;;;43.83;22.80;;;;;;;;;;5068745;28;20067;-64
2022/03/28 11:29:36;;;;;;;40.60;22.60;;;;;;;;;;5069517;28;20078;-64
2022/03/28 11:32:08;;;;;;;38.65;21.95;;;;;;;;;;5067392;28;20024;-64
2022/03/28 11:34:34;;;;;;;38.75;22.30;;;;;;;;;;5069646;28;20032;-64
2022/03/28 11:37:01;;;;;;;41.55;21.98;;;;;;;;;;5070031;28;20078;-64
2022/03/28 11:39:27;;;;;;;41.53;21.98;;;;;;;;;;5070024;28;20426;-64
2022/03/28 11:41:57;;;;;;;49.70;23.38;;;;;;;;;;5070254;28;20037;-64
2022/03/28 11:44:25;;;;;;;38.55;20.77;;;;;;;;;;5070688;28;20137;-65
2022/03/28 11:46:55;;;;;;;39.53;22.15;;;;;;;;;;5069277;28;20017;-65
2022/03/28 11:49:21;;;;;;;48.28;24.02;;;;;;;;;;5069844;28;20020;-65
2022/03/28 11:51:48;;;;;;;46.58;23.85;;;;;;;;;;5068789;28;20067;-65
2022/03/28 11:54:19;;;;;;;43.25;22.52;;;;;;;;;;5070465;28;20033;-65
2022/03/28 11:59:31;;;;;;;56.42;23.35;;;;;;;;;;5069800;28;20696;-64
2022/03/28 12:01:57;;;;;;;43.03;22.38;;;;;;;;;;5070300;28;20074;-64
2022/03/28 12:04:23;;;;;;;45.08;21.77;;;;;;;;;;5070188;28;20021;-64
2022/03/28 12:06:51;;;;;;;42.53;21.98;;;;;;;;;;5070417;28;20032;-65
2022/03/28 12:09:18;;;;;;;39.53;20.35;;;;;;;;;;5070855;28;20393;-65
2022/03/28 12:11:48;;;;;;;41.78;21.17;;;;;;;;;;5070142;28;20029;-65
2022/03/28 12:14:15;;;;;;;45.20;19.13;;;;;;;;;;5070937;28;20109;-65
2022/03/28 12:16:51;;;;;;;37.70;19.52;;;;;;;;;;5070738;28;20039;-65
2022/03/28 12:19:21;;;;;;;39.67;20.20;;;;;;;;;;5064228;28;20047;-65
2022/03/28 12:21:48;;;;;;;31.85;18.67;;;;;;;;;;5070204;28;20036;-65
2022/03/28 12:24:14;;;;;;;38.60;19.05;;;;;;;;;;5066257;28;20043;-65
2022/03/28 12:26:47;;;;;;;39.72;18.00;;;;;;;;;;5070082;28;20017;-64
2022/03/28 12:29:13;;;;;;;;;;;;;;;;;;5071028;28;20043;-64
2022/03/28 12:31:46;;;;;;;28.13;15.52;;;;;;;;;;5070884;28;19908;-64
2022/03/28 12:34:12;;;;;;;30.13;16.67;;;;;;;;;;5072129;28;20028;-65
2022/03/28 12:36:39;;;;;;;34.20;15.30;;;;;;;;;;5073606;28;20032;-65
2022/03/28 12:39:06;;;;;;;32.42;14.07;;;;;;;;;;5073354;28;20029;-65
2022/03/28 12:41:43;;;;;;;30.02;13.60;;;;;;;;;;5073306;28;20040;-65
2022/03/28 12:44:15;;;;;;;31.83;12.90;;;;;;;;;;5072298;28;20452;-65
2022/03/28 12:46:42;;;;;;;34.13;12.43;;;;;;;;;;5073795;28;20051;-65
2022/03/28 12:49:11;;;;;;;25.80;12.40;;;;;;;;;;5073201;28;20254;-65
2022/03/28 12:51:39;;;;;;;31.52;11.18;;;;;;;;;;5072467;28;20028;-65
2022/03/28 12:54:07;;;;;;;22.52;11.23;;;;;;;;;;5073112;28;20060;-65
2022/03/28 12:56:54;;;;;;;23.95;10.73;;;;;;;;;;5073177;28;20381;-65
2022/03/28 12:59:24;;;;;;;26.63;10.13;;;;;;;;;;5072134;28;20492;-65
2022/03/28 13:01:51;;;;;;;23.35;9.60;;;;;;;;;;5073134;28;20056;-65
2022/03/28 13:04:19;;;;;;;29.33;9.10;;;;;;;;;;5072859;28;20020;-65
2022/03/28 13:06:46;;;;;;;23.75;7.90;;;;;;;;;;5073283;28;20032;-65
2022/03/28 13:09:16;;;;;;;28.63;8.77;;;;;;;;;;5066131;28;20378;-65
2022/03/28 13:11:43;;;;;;;26.13;6.80;;;;;;;;;;5068351;28;20028;-64
2022/03/28 13:14:22;;;;;;;22.95;7.82;;;;;;;;;;5072838;28;20036;-65
2022/03/28 13:16:48;;;;;;;18.60;7.22;;;;;;;;;;5071294;28;20039;-65
2022/03/28 13:19:19;;;;;;;18.92;7.28;;;;;;;;;;5072371;28;20133;-65
2022/03/28 13:21:45;;;;;;;26.27;8.15;;;;;;;;;;5072620;28;20086;-65
2022/03/28 13:24:12;;;;;;;23.63;7.68;;;;;;;;;;5072321;28;20024;-65
2022/03/28 13:26:40;;;;;;;21.88;7.68;;;;;;;;;;5072193;28;20036;-64
2022/03/28 13:29:14;;;;;;;19.42;7.47;;;;;;;;;;5070605;28;20032;-64
2022/03/28 13:31:41;;;;;;;13.80;6.60;;;;;;;;;;5072689;28;20055;-64
2022/03/28 13:34:07;;;;;;;17.73;8.57;;;;;;;;;;5068704;28;20025;-64
2022/03/28 13:36:34;;;;;;;18.92;8.15;;;;;;;;;;5073409;28;20037;-64
2022/03/28 13:39:00;;;;;;;24.70;8.00;;;;;;;;;;5073272;28;20021;-64
2022/03/28 13:41:26;;;;;;;21.92;7.57;;;;;;;;;;5072437;28;20145;-64
2022/03/28 13:43:52;;;;;;;25.98;8.00;;;;;;;;;;5071401;28;20029;-64
2022/03/28 13:46:18;;;;;;;20.88;7.72;;;;;;;;;;5067410;28;20035;-65
2022/03/28 13:48:45;;;;;;;19.05;7.88;;;;;;;;;;5071887;28;20388;-65
2022/03/28 13:51:11;;;;;;;23.15;7.80;;;;;;;;;;5071370;28;20033;-65
2022/03/28 13:53:38;;;;;;;27.20;8.65;;;;;;;;;;5077014;28;20029;-65
2022/03/28 13:56:06;;;;;;;18.30;7.85;;;;;;;;;;5068574;28;20400;-65
2022/03/28 13:58:33;;;;;;;24.25;8.38;;;;;;;;;;5065559;28;20074;-65
2022/03/28 14:00:59;;;;;;;29.10;8.93;;;;;;;;;;5071330;28;20396;-65
2022/03/28 14:03:25;;;;;;;19.23;8.05;;;;;;;;;;5070733;28;20025;-65
2022/03/28 14:05:52;;;;;;;15.27;7.85;;;;;;;;;;5071065;28;20021;-64
2022/03/28 14:08:21;;;;;;;16.05;8.90;;;;;;;;;;5069393;28;20028;-64
2022/03/28 14:10:48;;;;;;;21.05;9.13;;;;;;;;;;5070163;28;20028;-64
2022/03/28 14:13:14;;;;;;;21.23;8.95;;;;;;;;;;5069495;28;20021;-65
2022/03/28 14:15:41;;;;;;;16.75;8.32;;;;;;;;;;5070827;28;20036;-65
2022/03/28 14:18:07;;;;;;;25.00;9.45;;;;;;;;;;5071254;28;20078;-65